sensor_id;sensor_type;location;lat;lon;timestamp;P1;durP1;ratioP1;P2;durP2;ratioP2
17702;SDS011;8970;48.104;-1.680;2022-09-09T00:00:14;12.05;;;3.20;;
17702;SDS011;8970;48.104;-1.680;2022-09-09T00:00:54;10.32;;;3.00;;
17702;SDS011;8970;48.104;-1.680;2022-09-09T00:01:40;12.07;;;2.75;;
17702;SDS011;8970;48.104;-1.680;2022-09-09T00:02:21;11.33;;;3.17;;
17702;SDS011;8970;48.104;-1.680;2022-09-09T00:03:01;14.53;;;3.58;;
17702;SDS011;8970;48.104;-1.680;2022-09-09T00:03:43;12.15;;;3.60;;
17702;SDS011;8970;48.104;-1.680;2022-09-09T00:04:27;11.80;;;2.80;;
17702;SDS011;8970;48.104;-1.680;2022-09-09T00:05:09;11.22;;;2.80;;
17702;SDS011;8970;48.104;-1.680;2022-09-09T00:05:49;9.08;;;2.90;;
17702;SDS011;8970;48.104;-1.680;2022-09-09T00:06:30;11.28;;;3.37;;
17702;SDS011;8970;48.104;-1.680;2022-09-09T00:07:13;12.65;;;3.60;;
17702;SDS011;8970;48.104;-1.680;2022-09-09T00:07:53;8.73;;;2.47;;
17702;SDS011;8970;48.104;-1.680;2022-09-09T00:08:34;8.75;;;3.05;;
17702;SDS011;8970;48.104;-1.680;2022-09-09T00:09:14;14.60;;;3.50;;
17702;SDS011;8970;48.104;-1.680;2022-09-09T00:10:00;12.88;;;3.17;;
17702;SDS011;8970;48.104;-1.680;2022-09-09T00:10:39;10.78;;;2.72;;
17702;SDS011;8970;48.104;-1.680;2022-09-09T00:11:17;9.20;;;2.90;;
17702;SDS011;8970;48.104;-1.680;2022-09-09T00:11:57;10.55;;;3.30;;
17702;SDS011;8970;48.104;-1.680;2022-09-09T00:12:41;12.00;;;3.05;;
17702;SDS011;8970;48.104;-1.680;2022-09-09T00:13:20;13.32;;;3.70;;
17702;SDS011;8970;48.104;-1.680;2022-09-09T00:13:59;13.83;;;3.17;;
17702;SDS011;8970;48.104;-1.680;2022-09-09T00:14:39;12.35;;;3.55;;
17702;SDS011;8970;48.104;-1.680;2022-09-09T00:15:25;17.30;;;2.98;;
17702;SDS011;8970;48.104;-1.680;2022-09-09T00:16:04;7.42;;;2.62;;
17702;SDS011;8970;48.104;-1.680;2022-09-09T00:16:47;10.70;;;2.75;;
17702;SDS011;8970;48.104;-1.680;2022-09-09T00:17:34;10.38;;;3.27;;
17702;SDS011;8970;48.104;-1.680;2022-09-09T00:18:15;8.35;;;3.20;;
17702;SDS011;8970;48.104;-1.680;2022-09-09T00:18:56;8.95;;;2.95;;
17702;SDS011;8970;48.104;-1.680;2022-09-09T00:19:36;11.53;;;3.27;;
17702;SDS011;8970;48.104;-1.680;2022-09-09T00:20:19;14.53;;;3.80;;
17702;SDS011;8970;48.104;-1.680;2022-09-09T00:21:04;10.35;;;2.95;;
17702;SDS011;8970;48.104;-1.680;2022-09-09T00:21:43;14.25;;;3.92;;
17702;SDS011;8970;48.104;-1.680;2022-09-09T00:22:23;15.20;;;3.12;;
17702;SDS011;8970;48.104;-1.680;2022-09-09T00:23:03;9.53;;;2.72;;
17702;SDS011;8970;48.104;-1.680;2022-09-09T00:23:46;10.35;;;3.12;;
17702;SDS011;8970;48.104;-1.680;2022-09-09T00:24:26;11.28;;;2.92;;
17702;SDS011;8970;48.104;-1.680;2022-09-09T00:25:10;12.78;;;3.33;;
17702;SDS011;8970;48.104;-1.680;2022-09-09T00:25:53;12.20;;;3.20;;
17702;SDS011;8970;48.104;-1.680;2022-09-09T00:26:39;13.40;;;2.75;;
17702;SDS011;8970;48.104;-1.680;2022-09-09T00:27:22;14.60;;;3.33;;
17702;SDS011;8970;48.104;-1.680;2022-09-09T00:28:04;10.35;;;3.02;;
17702;SDS011;8970;48.104;-1.680;2022-09-09T00:28:52;12.00;;;3.20;;
17702;SDS011;8970;48.104;-1.680;2022-09-09T00:29:33;10.70;;;3.42;;
17702;SDS011;8970;48.104;-1.680;2022-09-09T00:30:15;12.13;;;2.80;;
17702;SDS011;8970;48.104;-1.680;2022-09-09T00:30:54;13.38;;;3.45;;
17702;SDS011;8970;48.104;-1.680;2022-09-09T00:31:34;13.05;;;3.35;;
17702;SDS011;8970;48.104;-1.680;2022-09-09T00:32:13;13.05;;;3.45;;
17702;SDS011;8970;48.104;-1.680;2022-09-09T00:32:53;10.30;;;2.90;;
17702;SDS011;8970;48.104;-1.680;2022-09-09T00:33:32;7.75;;;2.67;;
17702;SDS011;8970;48.104;-1.680;2022-09-09T00:34:11;9.78;;;2.92;;
17702;SDS011;8970;48.104;-1.680;2022-09-09T00:35:32;10.58;;;2.95;;
17702;SDS011;8970;48.104;-1.680;2022-09-09T00:36:13;7.62;;;2.12;;
17702;SDS011;8970;48.104;-1.680;2022-09-09T00:36:52;11.90;;;2.95;;
17702;SDS011;8970;48.104;-1.680;2022-09-09T00:37:30;12.45;;;3.25;;
17702;SDS011;8970;48.104;-1.680;2022-09-09T00:38:10;8.80;;;3.10;;
17702;SDS011;8970;48.104;-1.680;2022-09-09T00:38:51;10.72;;;3.25;;
17702;SDS011;8970;48.104;-1.680;2022-09-09T00:39:37;8.38;;;2.50;;
17702;SDS011;8970;48.104;-1.680;2022-09-09T00:40:22;10.90;;;3.35;;
17702;SDS011;8970;48.104;-1.680;2022-09-09T00:41:03;10.32;;;3.15;;
17702;SDS011;8970;48.104;-1.680;2022-09-09T00:41:45;7.45;;;2.67;;
17702;SDS011;8970;48.104;-1.680;2022-09-09T00:42:25;12.23;;;3.20;;
17702;SDS011;8970;48.104;-1.680;2022-09-09T00:43:14;7.17;;;2.58;;
17702;SDS011;8970;48.104;-1.680;2022-09-09T00:43:56;15.95;;;3.05;;
17702;SDS011;8970;48.104;-1.680;2022-09-09T00:44:36;7.75;;;2.70;;
17702;SDS011;8970;48.104;-1.680;2022-09-09T00:45:30;12.33;;;3.62;;
17702;SDS011;8970;48.104;-1.680;2022-09-09T00:47:17;10.00;;;2.77;;
17702;SDS011;8970;48.104;-1.680;2022-09-09T00:48:05;13.03;;;3.77;;
17702;SDS011;8970;48.104;-1.680;2022-09-09T00:48:47;10.48;;;2.55;;
17702;SDS011;8970;48.104;-1.680;2022-09-09T00:49:32;10.85;;;3.30;;
17702;SDS011;8970;48.104;-1.680;2022-09-09T00:51:24;15.98;;;2.80;;
17702;SDS011;8970;48.104;-1.680;2022-09-09T00:52:08;9.58;;;3.42;;
17702;SDS011;8970;48.104;-1.680;2022-09-09T00:52:52;10.80;;;2.87;;
17702;SDS011;8970;48.104;-1.680;2022-09-09T00:53:34;7.97;;;3.08;;
17702;SDS011;8970;48.104;-1.680;2022-09-09T00:54:22;9.35;;;2.95;;
17702;SDS011;8970;48.104;-1.680;2022-09-09T00:55:12;11.22;;;2.65;;
17702;SDS011;8970;48.104;-1.680;2022-09-09T00:55:56;8.50;;;2.60;;
17702;SDS011;8970;48.104;-1.680;2022-09-09T00:56:37;13.53;;;3.25;;
17702;SDS011;8970;48.104;-1.680;2022-09-09T00:57:21;13.28;;;3.08;;
17702;SDS011;8970;48.104;-1.680;2022-09-09T00:58:01;9.45;;;3.00;;
17702;SDS011;8970;48.104;-1.680;2022-09-09T00:58:38;13.78;;;2.90;;
17702;SDS011;8970;48.104;-1.680;2022-09-09T00:59:19;12.25;;;3.02;;
17702;SDS011;8970;48.104;-1.680;2022-09-09T01:00:19;9.80;;;2.40;;
17702;SDS011;8970;48.104;-1.680;2022-09-09T01:01:00;8.55;;;2.45;;
17702;SDS011;8970;48.104;-1.680;2022-09-09T01:01:40;7.10;;;2.33;;
17702;SDS011;8970;48.104;-1.680;2022-09-09T01:02:19;10.00;;;2.67;;
17702;SDS011;8970;48.104;-1.680;2022-09-09T01:03:10;10.55;;;2.85;;
17702;SDS011;8970;48.104;-1.680;2022-09-09T01:03:54;8.45;;;2.90;;
17702;SDS011;8970;48.104;-1.680;2022-09-09T01:04:33;9.88;;;2.80;;
17702;SDS011;8970;48.104;-1.680;2022-09-09T01:05:12;9.75;;;2.98;;
17702;SDS011;8970;48.104;-1.680;2022-09-09T01:05:54;11.57;;;2.65;;
17702;SDS011;8970;48.104;-1.680;2022-09-09T01:06:40;11.68;;;3.27;;
17702;SDS011;8970;48.104;-1.680;2022-09-09T01:07:22;11.40;;;2.85;;
17702;SDS011;8970;48.104;-1.680;2022-09-09T01:08:01;14.87;;;3.12;;
17702;SDS011;8970;48.104;-1.680;2022-09-09T01:09:00;9.78;;;2.70;;
17702;SDS011;8970;48.104;-1.680;2022-09-09T01:09:54;11.75;;;2.90;;
17702;SDS011;8970;48.104;-1.680;2022-09-09T01:10:41;11.25;;;3.20;;
17702;SDS011;8970;48.104;-1.680;2022-09-09T01:11:57;7.72;;;2.47;;
17702;SDS011;8970;48.104;-1.680;2022-09-09T01:12:38;10.40;;;2.98;;
17702;SDS011;8970;48.104;-1.680;2022-09-09T01:13:19;12.33;;;3.10;;
17702;SDS011;8970;48.104;-1.680;2022-09-09T01:13:59;10.20;;;2.98;;
17702;SDS011;8970;48.104;-1.680;2022-09-09T01:15:22;11.03;;;2.90;;
17702;SDS011;8970;48.104;-1.680;2022-09-09T01:16:03;6.58;;;2.10;;
17702;SDS011;8970;48.104;-1.680;2022-09-09T01:16:41;10.60;;;2.90;;
17702;SDS011;8970;48.104;-1.680;2022-09-09T01:17:21;6.28;;;2.35;;
17702;SDS011;8970;48.104;-1.680;2022-09-09T01:18:04;9.25;;;2.83;;
17702;SDS011;8970;48.104;-1.680;2022-09-09T01:18:44;7.95;;;2.47;;
17702;SDS011;8970;48.104;-1.680;2022-09-09T01:19:35;7.60;;;2.75;;
17702;SDS011;8970;48.104;-1.680;2022-09-09T01:20:12;9.53;;;2.33;;
17702;SDS011;8970;48.104;-1.680;2022-09-09T01:20:54;7.22;;;2.42;;
17702;SDS011;8970;48.104;-1.680;2022-09-09T01:21:34;8.65;;;2.35;;
17702;SDS011;8970;48.104;-1.680;2022-09-09T01:22:16;7.85;;;2.70;;
17702;SDS011;8970;48.104;-1.680;2022-09-09T01:23:04;6.10;;;2.20;;
17702;SDS011;8970;48.104;-1.680;2022-09-09T01:23:51;10.88;;;3.05;;
17702;SDS011;8970;48.104;-1.680;2022-09-09T01:24:34;11.83;;;2.87;;
17702;SDS011;8970;48.104;-1.680;2022-09-09T01:25:19;9.20;;;2.65;;
17702;SDS011;8970;48.104;-1.680;2022-09-09T01:27:03;9.15;;;2.50;;
17702;SDS011;8970;48.104;-1.680;2022-09-09T01:27:42;8.23;;;2.65;;
17702;SDS011;8970;48.104;-1.680;2022-09-09T01:28:25;12.50;;;3.02;;
17702;SDS011;8970;48.104;-1.680;2022-09-09T01:29:07;10.58;;;2.95;;
17702;SDS011;8970;48.104;-1.680;2022-09-09T01:29:45;7.50;;;2.42;;
17702;SDS011;8970;48.104;-1.680;2022-09-09T01:30:22;8.75;;;2.87;;
17702;SDS011;8970;48.104;-1.680;2022-09-09T01:31:41;10.50;;;2.30;;
17702;SDS011;8970;48.104;-1.680;2022-09-09T01:32:38;10.32;;;2.42;;
17702;SDS011;8970;48.104;-1.680;2022-09-09T01:33:17;14.65;;;3.20;;
17702;SDS011;8970;48.104;-1.680;2022-09-09T01:33:55;8.93;;;2.45;;
17702;SDS011;8970;48.104;-1.680;2022-09-09T01:34:33;9.75;;;2.47;;
17702;SDS011;8970;48.104;-1.680;2022-09-09T01:35:12;10.28;;;2.85;;
17702;SDS011;8970;48.104;-1.680;2022-09-09T01:35:57;10.05;;;3.00;;
17702;SDS011;8970;48.104;-1.680;2022-09-09T01:36:37;10.45;;;3.47;;
17702;SDS011;8970;48.104;-1.680;2022-09-09T01:37:15;9.90;;;2.40;;
17702;SDS011;8970;48.104;-1.680;2022-09-09T01:37:58;9.05;;;2.62;;
17702;SDS011;8970;48.104;-1.680;2022-09-09T01:38:35;9.75;;;2.50;;
17702;SDS011;8970;48.104;-1.680;2022-09-09T01:39:13;12.37;;;2.77;;
17702;SDS011;8970;48.104;-1.680;2022-09-09T01:39:50;12.07;;;3.08;;
17702;SDS011;8970;48.104;-1.680;2022-09-09T01:41:08;8.98;;;2.90;;
17702;SDS011;8970;48.104;-1.680;2022-09-09T01:41:44;11.18;;;2.95;;
17702;SDS011;8970;48.104;-1.680;2022-09-09T01:42:21;10.88;;;2.70;;
17702;SDS011;8970;48.104;-1.680;2022-09-09T01:42:57;8.18;;;2.65;;
17702;SDS011;8970;48.104;-1.680;2022-09-09T01:43:40;8.55;;;2.62;;
17702;SDS011;8970;48.104;-1.680;2022-09-09T01:44:17;11.73;;;3.17;;
17702;SDS011;8970;48.104;-1.680;2022-09-09T01:44:53;9.98;;;2.90;;
17702;SDS011;8970;48.104;-1.680;2022-09-09T01:45:31;13.68;;;3.60;;
17702;SDS011;8970;48.104;-1.680;2022-09-09T01:46:08;13.27;;;3.37;;
17702;SDS011;8970;48.104;-1.680;2022-09-09T01:47:28;11.85;;;2.87;;
17702;SDS011;8970;48.104;-1.680;2022-09-09T01:48:05;13.48;;;3.02;;
17702;SDS011;8970;48.104;-1.680;2022-09-09T01:48:41;10.65;;;2.72;;
17702;SDS011;8970;48.104;-1.680;2022-09-09T01:49:18;10.28;;;2.70;;
17702;SDS011;8970;48.104;-1.680;2022-09-09T01:49:55;9.38;;;2.77;;
17702;SDS011;8970;48.104;-1.680;2022-09-09T01:50:32;9.55;;;3.00;;
17702;SDS011;8970;48.104;-1.680;2022-09-09T01:51:09;9.50;;;2.98;;
17702;SDS011;8970;48.104;-1.680;2022-09-09T01:51:46;12.33;;;3.22;;
17702;SDS011;8970;48.104;-1.680;2022-09-09T01:52:29;12.23;;;2.83;;
17702;SDS011;8970;48.104;-1.680;2022-09-09T01:53:07;12.10;;;2.50;;
17702;SDS011;8970;48.104;-1.680;2022-09-09T01:53:45;11.33;;;3.05;;
17702;SDS011;8970;48.104;-1.680;2022-09-09T01:54:27;11.28;;;3.20;;
17702;SDS011;8970;48.104;-1.680;2022-09-09T01:55:07;9.20;;;2.70;;
17702;SDS011;8970;48.104;-1.680;2022-09-09T01:57:14;10.20;;;3.10;;
17702;SDS011;8970;48.104;-1.680;2022-09-09T01:57:59;11.88;;;3.00;;
17702;SDS011;8970;48.104;-1.680;2022-09-09T01:58:53;12.78;;;2.75;;
17702;SDS011;8970;48.104;-1.680;2022-09-09T02:00:41;8.53;;;2.70;;
17702;SDS011;8970;48.104;-1.680;2022-09-09T02:01:23;9.13;;;2.37;;
17702;SDS011;8970;48.104;-1.680;2022-09-09T02:02:07;12.13;;;2.60;;
17702;SDS011;8970;48.104;-1.680;2022-09-09T02:02:52;10.82;;;2.75;;
17702;SDS011;8970;48.104;-1.680;2022-09-09T02:03:31;13.68;;;2.55;;
17702;SDS011;8970;48.104;-1.680;2022-09-09T02:04:12;7.35;;;2.17;;
17702;SDS011;8970;48.104;-1.680;2022-09-09T02:04:54;9.20;;;2.98;;
17702;SDS011;8970;48.104;-1.680;2022-09-09T02:05:34;10.18;;;2.67;;
17702;SDS011;8970;48.104;-1.680;2022-09-09T02:06:19;9.15;;;2.87;;
17702;SDS011;8970;48.104;-1.680;2022-09-09T02:07:01;8.53;;;2.65;;
17702;SDS011;8970;48.104;-1.680;2022-09-09T02:07:40;11.65;;;2.37;;
17702;SDS011;8970;48.104;-1.680;2022-09-09T02:08:19;10.68;;;2.55;;
17702;SDS011;8970;48.104;-1.680;2022-09-09T02:09:04;6.70;;;2.35;;
17702;SDS011;8970;48.104;-1.680;2022-09-09T02:09:43;9.90;;;2.67;;
17702;SDS011;8970;48.104;-1.680;2022-09-09T02:10:24;9.50;;;2.70;;
17702;SDS011;8970;48.104;-1.680;2022-09-09T02:11:05;11.50;;;2.90;;
17702;SDS011;8970;48.104;-1.680;2022-09-09T02:11:47;9.13;;;2.70;;
17702;SDS011;8970;48.104;-1.680;2022-09-09T02:12:27;10.03;;;2.40;;
17702;SDS011;8970;48.104;-1.680;2022-09-09T02:13:07;8.45;;;2.27;;
17702;SDS011;8970;48.104;-1.680;2022-09-09T02:13:51;8.13;;;2.22;;
17702;SDS011;8970;48.104;-1.680;2022-09-09T02:14:30;9.73;;;2.92;;
17702;SDS011;8970;48.104;-1.680;2022-09-09T02:15:12;7.42;;;2.40;;
17702;SDS011;8970;48.104;-1.680;2022-09-09T02:15:56;11.38;;;2.55;;
17702;SDS011;8970;48.104;-1.680;2022-09-09T02:16:37;11.08;;;2.83;;
17702;SDS011;8970;48.104;-1.680;2022-09-09T02:17:16;11.95;;;2.85;;
17702;SDS011;8970;48.104;-1.680;2022-09-09T02:17:55;9.75;;;2.72;;
17702;SDS011;8970;48.104;-1.680;2022-09-09T02:18:40;6.85;;;2.50;;
17702;SDS011;8970;48.104;-1.680;2022-09-09T02:19:19;8.80;;;2.58;;
17702;SDS011;8970;48.104;-1.680;2022-09-09T02:20:00;8.10;;;2.40;;
17702;SDS011;8970;48.104;-1.680;2022-09-09T02:20:40;7.20;;;1.95;;
17702;SDS011;8970;48.104;-1.680;2022-09-09T02:21:23;10.63;;;2.73;;
17702;SDS011;8970;48.104;-1.680;2022-09-09T02:22:02;9.18;;;2.60;;
17702;SDS011;8970;48.104;-1.680;2022-09-09T02:22:40;8.23;;;2.67;;
17702;SDS011;8970;48.104;-1.680;2022-09-09T02:23:19;11.05;;;2.83;;
17702;SDS011;8970;48.104;-1.680;2022-09-09T02:23:57;9.20;;;2.50;;
17702;SDS011;8970;48.104;-1.680;2022-09-09T02:24:38;8.10;;;2.27;;
17702;SDS011;8970;48.104;-1.680;2022-09-09T02:25:23;9.35;;;3.00;;
17702;SDS011;8970;48.104;-1.680;2022-09-09T02:26:01;10.85;;;2.70;;
17702;SDS011;8970;48.104;-1.680;2022-09-09T02:26:40;5.15;;;2.50;;
17702;SDS011;8970;48.104;-1.680;2022-09-09T02:27:20;11.63;;;2.85;;
17702;SDS011;8970;48.104;-1.680;2022-09-09T02:27:57;10.93;;;2.58;;
17702;SDS011;8970;48.104;-1.680;2022-09-09T02:28:34;7.47;;;2.25;;
17702;SDS011;8970;48.104;-1.680;2022-09-09T02:29:13;7.15;;;2.30;;
17702;SDS011;8970;48.104;-1.680;2022-09-09T02:29:56;9.80;;;2.60;;
17702;SDS011;8970;48.104;-1.680;2022-09-09T02:30:35;5.95;;;2.40;;
17702;SDS011;8970;48.104;-1.680;2022-09-09T02:31:14;6.80;;;2.60;;
17702;SDS011;8970;48.104;-1.680;2022-09-09T02:31:54;7.65;;;2.42;;
17702;SDS011;8970;48.104;-1.680;2022-09-09T02:32:38;7.22;;;1.92;;
17702;SDS011;8970;48.104;-1.680;2022-09-09T02:33:19;8.38;;;2.20;;
17702;SDS011;8970;48.104;-1.680;2022-09-09T02:33:58;11.88;;;2.25;;
17702;SDS011;8970;48.104;-1.680;2022-09-09T02:34:37;12.33;;;2.70;;
17702;SDS011;8970;48.104;-1.680;2022-09-09T02:35:23;7.92;;;2.37;;
17702;SDS011;8970;48.104;-1.680;2022-09-09T02:36:02;9.70;;;1.85;;
17702;SDS011;8970;48.104;-1.680;2022-09-09T02:36:41;8.03;;;2.52;;
17702;SDS011;8970;48.104;-1.680;2022-09-09T02:37:26;7.37;;;2.15;;
17702;SDS011;8970;48.104;-1.680;2022-09-09T02:38:05;6.37;;;2.05;;
17702;SDS011;8970;48.104;-1.680;2022-09-09T02:38:46;8.25;;;2.05;;
17702;SDS011;8970;48.104;-1.680;2022-09-09T02:39:25;8.45;;;2.40;;
17702;SDS011;8970;48.104;-1.680;2022-09-09T02:40:02;8.85;;;2.50;;
17702;SDS011;8970;48.104;-1.680;2022-09-09T02:40:41;6.63;;;2.23;;
17702;SDS011;8970;48.104;-1.680;2022-09-09T02:41:17;7.22;;;2.10;;
17702;SDS011;8970;48.104;-1.680;2022-09-09T02:41:56;6.83;;;2.17;;
17702;SDS011;8970;48.104;-1.680;2022-09-09T02:42:38;6.28;;;2.50;;
17702;SDS011;8970;48.104;-1.680;2022-09-09T02:43:15;7.67;;;1.90;;
17702;SDS011;8970;48.104;-1.680;2022-09-09T02:43:52;7.47;;;2.30;;
17702;SDS011;8970;48.104;-1.680;2022-09-09T02:44:30;10.32;;;2.10;;
17702;SDS011;8970;48.104;-1.680;2022-09-09T02:45:08;5.33;;;2.00;;
17702;SDS011;8970;48.104;-1.680;2022-09-09T02:45:47;8.78;;;2.10;;
17702;SDS011;8970;48.104;-1.680;2022-09-09T02:46:35;8.88;;;1.90;;
17702;SDS011;8970;48.104;-1.680;2022-09-09T02:47:58;9.80;;;2.30;;
17702;SDS011;8970;48.104;-1.680;2022-09-09T02:48:39;8.23;;;2.33;;
17702;SDS011;8970;48.104;-1.680;2022-09-09T02:49:19;4.78;;;1.77;;
17702;SDS011;8970;48.104;-1.680;2022-09-09T02:50:01;8.33;;;2.10;;
17702;SDS011;8970;48.104;-1.680;2022-09-09T02:50:48;6.58;;;1.70;;
17702;SDS011;8970;48.104;-1.680;2022-09-09T02:51:28;7.65;;;2.22;;
17702;SDS011;8970;48.104;-1.680;2022-09-09T02:52:08;6.22;;;1.70;;
17702;SDS011;8970;48.104;-1.680;2022-09-09T02:53:32;9.45;;;2.00;;
17702;SDS011;8970;48.104;-1.680;2022-09-09T02:54:10;12.25;;;2.42;;
17702;SDS011;8970;48.104;-1.680;2022-09-09T02:54:50;7.80;;;2.05;;
17702;SDS011;8970;48.104;-1.680;2022-09-09T02:55:37;6.53;;;1.82;;
17702;SDS011;8970;48.104;-1.680;2022-09-09T02:56:17;7.67;;;1.67;;
17702;SDS011;8970;48.104;-1.680;2022-09-09T02:56:57;9.35;;;2.25;;
17702;SDS011;8970;48.104;-1.680;2022-09-09T02:57:40;5.95;;;2.12;;
17702;SDS011;8970;48.104;-1.680;2022-09-09T02:58:19;5.70;;;2.15;;
17702;SDS011;8970;48.104;-1.680;2022-09-09T02:58:56;7.33;;;1.80;;
17702;SDS011;8970;48.104;-1.680;2022-09-09T02:59:32;11.45;;;2.60;;
17702;SDS011;8970;48.104;-1.680;2022-09-09T03:00:11;8.63;;;2.10;;
17702;SDS011;8970;48.104;-1.680;2022-09-09T03:00:49;7.92;;;2.00;;
17702;SDS011;8970;48.104;-1.680;2022-09-09T03:01:27;5.95;;;1.92;;
17702;SDS011;8970;48.104;-1.680;2022-09-09T03:02:04;8.48;;;2.15;;
17702;SDS011;8970;48.104;-1.680;2022-09-09T03:02:41;9.55;;;1.80;;
17702;SDS011;8970;48.104;-1.680;2022-09-09T03:03:19;10.50;;;2.25;;
17702;SDS011;8970;48.104;-1.680;2022-09-09T03:03:56;7.00;;;1.92;;
17702;SDS011;8970;48.104;-1.680;2022-09-09T03:04:33;10.98;;;2.30;;
17702;SDS011;8970;48.104;-1.680;2022-09-09T03:05:10;6.78;;;2.20;;
17702;SDS011;8970;48.104;-1.680;2022-09-09T03:05:46;6.33;;;1.80;;
17702;SDS011;8970;48.104;-1.680;2022-09-09T03:06:23;9.30;;;2.00;;
17702;SDS011;8970;48.104;-1.680;2022-09-09T03:07:01;5.85;;;2.20;;
17702;SDS011;8970;48.104;-1.680;2022-09-09T03:07:39;9.25;;;1.98;;
17702;SDS011;8970;48.104;-1.680;2022-09-09T03:08:21;5.42;;;1.87;;
17702;SDS011;8970;48.104;-1.680;2022-09-09T03:08:58;8.63;;;2.05;;
17702;SDS011;8970;48.104;-1.680;2022-09-09T03:09:36;9.43;;;2.05;;
17702;SDS011;8970;48.104;-1.680;2022-09-09T03:10:13;9.03;;;2.50;;
17702;SDS011;8970;48.104;-1.680;2022-09-09T03:10:49;8.08;;;1.77;;
17702;SDS011;8970;48.104;-1.680;2022-09-09T03:11:28;5.30;;;1.77;;
17702;SDS011;8970;48.104;-1.680;2022-09-09T03:12:05;6.25;;;1.80;;
17702;SDS011;8970;48.104;-1.680;2022-09-09T03:13:22;10.58;;;2.20;;
17702;SDS011;8970;48.104;-1.680;2022-09-09T03:13:59;7.20;;;2.17;;
17702;SDS011;8970;48.104;-1.680;2022-09-09T03:14:36;4.47;;;1.70;;
17702;SDS011;8970;48.104;-1.680;2022-09-09T03:15:14;6.12;;;1.60;;
17702;SDS011;8970;48.104;-1.680;2022-09-09T03:15:50;8.23;;;2.15;;
17702;SDS011;8970;48.104;-1.680;2022-09-09T03:16:28;6.20;;;2.08;;
17702;SDS011;8970;48.104;-1.680;2022-09-09T03:17:04;5.83;;;1.70;;
17702;SDS011;8970;48.104;-1.680;2022-09-09T03:17:43;6.20;;;2.20;;
17702;SDS011;8970;48.104;-1.680;2022-09-09T03:18:20;5.15;;;2.30;;
17702;SDS011;8970;48.104;-1.680;2022-09-09T03:18:57;5.03;;;1.95;;
17702;SDS011;8970;48.104;-1.680;2022-09-09T03:19:34;7.15;;;2.20;;
17702;SDS011;8970;48.104;-1.680;2022-09-09T03:20:52;8.33;;;1.72;;
17702;SDS011;8970;48.104;-1.680;2022-09-09T03:21:29;7.95;;;2.20;;
17702;SDS011;8970;48.104;-1.680;2022-09-09T03:22:06;9.30;;;2.33;;
17702;SDS011;8970;48.104;-1.680;2022-09-09T03:22:44;6.00;;;1.75;;
17702;SDS011;8970;48.104;-1.680;2022-09-09T03:24:02;7.37;;;1.92;;
17702;SDS011;8970;48.104;-1.680;2022-09-09T03:24:40;7.50;;;2.27;;
17702;SDS011;8970;48.104;-1.680;2022-09-09T03:25:16;6.55;;;1.95;;
17702;SDS011;8970;48.104;-1.680;2022-09-09T03:25:59;7.53;;;1.77;;
17702;SDS011;8970;48.104;-1.680;2022-09-09T03:26:36;5.83;;;2.10;;
17702;SDS011;8970;48.104;-1.680;2022-09-09T03:27:14;7.17;;;2.12;;
17702;SDS011;8970;48.104;-1.680;2022-09-09T03:27:51;8.73;;;1.85;;
17702;SDS011;8970;48.104;-1.680;2022-09-09T03:28:28;8.48;;;2.20;;
17702;SDS011;8970;48.104;-1.680;2022-09-09T03:29:05;11.10;;;2.62;;
17702;SDS011;8970;48.104;-1.680;2022-09-09T03:29:42;9.28;;;2.17;;
17702;SDS011;8970;48.104;-1.680;2022-09-09T03:30:20;7.42;;;2.17;;
17702;SDS011;8970;48.104;-1.680;2022-09-09T03:31:03;9.98;;;2.27;;
17702;SDS011;8970;48.104;-1.680;2022-09-09T03:31:42;6.25;;;1.90;;
17702;SDS011;8970;48.104;-1.680;2022-09-09T03:32:20;11.12;;;2.47;;
17702;SDS011;8970;48.104;-1.680;2022-09-09T03:32:56;6.78;;;1.67;;
17702;SDS011;8970;48.104;-1.680;2022-09-09T03:33:33;6.62;;;2.05;;
17702;SDS011;8970;48.104;-1.680;2022-09-09T03:34:10;8.90;;;2.08;;
17702;SDS011;8970;48.104;-1.680;2022-09-09T03:34:50;8.28;;;1.80;;
17702;SDS011;8970;48.104;-1.680;2022-09-09T03:35:27;7.25;;;1.92;;
17702;SDS011;8970;48.104;-1.680;2022-09-09T03:36:04;8.35;;;2.30;;
17702;SDS011;8970;48.104;-1.680;2022-09-09T03:36:46;8.48;;;2.50;;
17702;SDS011;8970;48.104;-1.680;2022-09-09T03:37:23;5.85;;;2.17;;
17702;SDS011;8970;48.104;-1.680;2022-09-09T03:38:00;8.13;;;1.77;;
17702;SDS011;8970;48.104;-1.680;2022-09-09T03:38:37;11.15;;;1.98;;
17702;SDS011;8970;48.104;-1.680;2022-09-09T03:39:13;7.60;;;1.92;;
17702;SDS011;8970;48.104;-1.680;2022-09-09T03:39:50;8.55;;;2.30;;
17702;SDS011;8970;48.104;-1.680;2022-09-09T03:40:28;7.67;;;2.62;;
17702;SDS011;8970;48.104;-1.680;2022-09-09T03:41:05;8.58;;;2.15;;
17702;SDS011;8970;48.104;-1.680;2022-09-09T03:41:42;9.83;;;2.22;;
17702;SDS011;8970;48.104;-1.680;2022-09-09T03:43:02;7.30;;;1.98;;
17702;SDS011;8970;48.104;-1.680;2022-09-09T03:43:38;7.85;;;1.82;;
17702;SDS011;8970;48.104;-1.680;2022-09-09T03:44:15;7.25;;;2.42;;
17702;SDS011;8970;48.104;-1.680;2022-09-09T03:44:52;10.80;;;2.50;;
17702;SDS011;8970;48.104;-1.680;2022-09-09T03:45:30;7.83;;;2.25;;
17702;SDS011;8970;48.104;-1.680;2022-09-09T03:46:07;9.88;;;2.60;;
17702;SDS011;8970;48.104;-1.680;2022-09-09T03:47:25;6.55;;;2.10;;
17702;SDS011;8970;48.104;-1.680;2022-09-09T03:48:03;6.72;;;2.05;;
17702;SDS011;8970;48.104;-1.680;2022-09-09T03:48:40;6.95;;;2.10;;
17702;SDS011;8970;48.104;-1.680;2022-09-09T03:49:58;7.87;;;2.27;;
17702;SDS011;8970;48.104;-1.680;2022-09-09T03:50:38;11.35;;;2.20;;
17702;SDS011;8970;48.104;-1.680;2022-09-09T03:51:16;7.55;;;1.77;;
17702;SDS011;8970;48.104;-1.680;2022-09-09T03:51:52;10.58;;;2.17;;
17702;SDS011;8970;48.104;-1.680;2022-09-09T03:52:35;7.20;;;2.08;;
17702;SDS011;8970;48.104;-1.680;2022-09-09T03:53:12;8.30;;;2.55;;
17702;SDS011;8970;48.104;-1.680;2022-09-09T03:53:49;8.90;;;2.42;;
17702;SDS011;8970;48.104;-1.680;2022-09-09T03:54:26;7.72;;;2.08;;
17702;SDS011;8970;48.104;-1.680;2022-09-09T03:55:03;7.17;;;1.62;;
17702;SDS011;8970;48.104;-1.680;2022-09-09T03:55:44;8.85;;;2.17;;
17702;SDS011;8970;48.104;-1.680;2022-09-09T03:56:20;10.40;;;2.25;;
17702;SDS011;8970;48.104;-1.680;2022-09-09T03:56:57;9.48;;;2.50;;
17702;SDS011;8970;48.104;-1.680;2022-09-09T03:57:34;7.92;;;2.00;;
17702;SDS011;8970;48.104;-1.680;2022-09-09T03:58:11;11.22;;;2.37;;
17702;SDS011;8970;48.104;-1.680;2022-09-09T03:58:48;10.18;;;2.20;;
17702;SDS011;8970;48.104;-1.680;2022-09-09T03:59:25;7.97;;;2.37;;
17702;SDS011;8970;48.104;-1.680;2022-09-09T04:00:02;7.50;;;2.00;;
17702;SDS011;8970;48.104;-1.680;2022-09-09T04:00:40;6.35;;;1.80;;
17702;SDS011;8970;48.104;-1.680;2022-09-09T04:01:18;8.15;;;2.33;;
17702;SDS011;8970;48.104;-1.680;2022-09-09T04:01:55;10.45;;;2.17;;
17702;SDS011;8970;48.104;-1.680;2022-09-09T04:02:33;8.45;;;2.95;;
17702;SDS011;8970;48.104;-1.680;2022-09-09T04:03:09;8.88;;;2.05;;
17702;SDS011;8970;48.104;-1.680;2022-09-09T04:03:47;7.12;;;2.08;;
17702;SDS011;8970;48.104;-1.680;2022-09-09T04:04:24;8.95;;;1.80;;
17702;SDS011;8970;48.104;-1.680;2022-09-09T04:05:00;6.22;;;1.90;;
17702;SDS011;8970;48.104;-1.680;2022-09-09T04:05:38;11.65;;;2.42;;
17702;SDS011;8970;48.104;-1.680;2022-09-09T04:06:16;6.30;;;2.20;;
17702;SDS011;8970;48.104;-1.680;2022-09-09T04:06:53;6.30;;;2.12;;
17702;SDS011;8970;48.104;-1.680;2022-09-09T04:07:36;7.15;;;2.37;;
17702;SDS011;8970;48.104;-1.680;2022-09-09T04:08:12;7.30;;;2.30;;
17702;SDS011;8970;48.104;-1.680;2022-09-09T04:08:49;11.12;;;2.30;;
17702;SDS011;8970;48.104;-1.680;2022-09-09T04:09:26;5.20;;;2.00;;
17702;SDS011;8970;48.104;-1.680;2022-09-09T04:10:03;9.95;;;2.85;;
17702;SDS011;8970;48.104;-1.680;2022-09-09T04:10:42;5.85;;;1.98;;
17702;SDS011;8970;48.104;-1.680;2022-09-09T04:11:21;10.93;;;2.60;;
17702;SDS011;8970;48.104;-1.680;2022-09-09T04:11:58;9.25;;;2.50;;
17702;SDS011;8970;48.104;-1.680;2022-09-09T04:13:16;5.67;;;1.95;;
17702;SDS011;8970;48.104;-1.680;2022-09-09T04:13:53;10.50;;;2.47;;
17702;SDS011;8970;48.104;-1.680;2022-09-09T04:14:30;8.65;;;2.58;;
17702;SDS011;8970;48.104;-1.680;2022-09-09T04:15:07;8.90;;;2.33;;
17702;SDS011;8970;48.104;-1.680;2022-09-09T04:15:48;7.95;;;2.58;;
17702;SDS011;8970;48.104;-1.680;2022-09-09T04:16:31;7.87;;;2.08;;